createdAt,value
2023-02-09T00:01:41.587Z,103057.28
2023-02-09T00:04:11.090Z,103059.88
2023-02-09T00:06:41.625Z,103053.59
2023-02-09T00:09:10.816Z,103046.59
2023-02-09T00:11:57.924Z,103045.75
2023-02-09T00:14:27.304Z,103056.69
2023-02-09T00:16:55.764Z,103052.56
2023-02-09T00:19:24.415Z,103050.34
2023-02-09T00:21:53.361Z,103042.34
2023-02-09T00:24:22.483Z,103051.25
2023-02-09T00:26:53.112Z,103047.66
2023-02-09T00:29:24.102Z,103052.38
2023-02-09T00:31:53.583Z,103052.28
2023-02-09T00:34:22.622Z,103037.22
2023-02-09T00:36:51.031Z,103035.66
2023-02-09T00:39:19.396Z,103034.41
2023-02-09T00:42:04.897Z,103046.09
2023-02-09T00:44:35.766Z,103046.16
2023-02-09T00:47:05.424Z,103040.66
2023-02-09T00:49:34.282Z,103035.22
2023-02-09T00:52:03.225Z,103042.63
2023-02-09T00:54:33.261Z,103043.50
2023-02-09T00:57:05.672Z,103047.00
2023-02-09T00:59:40.667Z,103040.78
2023-02-09T01:02:10.068Z,103042.63
2023-02-09T01:04:39.266Z,103042.50
2023-02-09T01:07:07.212Z,103052.44
2023-02-09T01:09:35.273Z,103049.56
2023-02-09T01:12:03.282Z,103045.94
2023-02-09T01:14:31.808Z,103049.38
2023-02-09T01:17:01.387Z,103045.19
2023-02-09T01:19:29.382Z,103042.41
2023-02-09T01:21:57.492Z,103044.13
2023-02-09T01:24:25.722Z,103042.31
2023-02-09T01:26:53.639Z,103040.66
2023-02-09T01:29:22.152Z,103048.31
2023-02-09T01:31:50.270Z,103045.97
2023-02-09T01:34:20.579Z,103046.25
2023-02-09T01:36:49.804Z,103056.00
2023-02-09T01:39:17.869Z,103057.59
2023-02-09T01:41:45.888Z,103055.69
2023-02-09T01:45:15.917Z,103049.63
2023-02-09T01:47:47.697Z,103047.66
2023-02-09T01:50:18.264Z,103055.69
2023-02-09T01:52:49.055Z,103050.25
2023-02-09T01:55:21.027Z,103049.56
2023-02-09T01:57:52.772Z,103045.94
2023-02-09T02:00:22.986Z,103048.53
2023-02-09T02:02:55.772Z,103041.63
2023-02-09T02:05:27.720Z,103045.97
2023-02-09T02:08:01.841Z,103046.50
2023-02-09T02:10:30.668Z,103040.47
2023-02-09T02:12:59.279Z,103047.78
2023-02-09T02:15:31.849Z,103054.75
2023-02-09T02:18:21.405Z,103055.38
2023-02-09T02:21:22.001Z,103060.06
2023-02-09T02:24:07.000Z,103056.50
2023-02-09T02:26:54.710Z,103048.53
2023-02-09T02:29:52.721Z,103047.94
2023-02-09T02:32:40.423Z,103044.13
2023-02-09T02:35:15.576Z,103050.88
2023-02-09T02:37:54.887Z,103044.97
2023-02-09T02:40:34.606Z,103051.06
2023-02-09T02:43:10.337Z,103050.16
2023-02-09T02:45:44.536Z,103052.81
2023-02-09T02:48:22.751Z,103051.66
2023-02-09T02:50:54.774Z,103058.03
2023-02-09T02:53:27.286Z,103054.06
2023-02-09T02:55:57.775Z,103056.25
2023-02-09T02:58:28.592Z,103051.66
2023-02-09T03:01:00.279Z,103054.41
2023-02-09T03:03:33.361Z,103047.22
2023-02-09T03:06:04.494Z,103038.22
2023-02-09T03:08:47.202Z,103049.09
2023-02-09T03:11:15.244Z,103037.25
2023-02-09T03:14:04.681Z,103034.25
2023-02-09T03:16:38.823Z,103044.53
2023-02-09T03:19:18.509Z,103038.09
2023-02-09T03:21:52.323Z,103040.78
2023-02-09T03:24:31.083Z,103032.91
2023-02-09T03:27:03.576Z,103038.84
2023-02-09T03:29:33.189Z,103042.72
2023-02-09T03:32:01.190Z,103036.69
2023-02-09T03:34:31.028Z,103024.56
2023-02-09T03:36:59.273Z,103037.38
2023-02-09T03:39:27.391Z,103027.22
2023-02-09T03:41:55.247Z,103024.34
2023-02-09T03:44:28.849Z,103024.03
2023-02-09T03:46:58.990Z,103020.53
2023-02-09T03:49:28.533Z,103015.16
2023-02-09T03:52:00.816Z,103017.28
2023-02-09T03:54:29.036Z,103017.81
2023-02-09T03:56:57.689Z,103010.47
2023-02-09T03:59:26.902Z,103012.25
2023-02-09T04:01:56.040Z,103006.78
2023-02-09T04:04:24.720Z,103010.16
2023-02-09T04:06:52.983Z,103006.69
2023-02-09T04:09:22.352Z,103008.53
2023-02-09T04:11:50.578Z,102995.72
2023-02-09T04:14:18.660Z,103008.31
2023-02-09T04:16:46.982Z,103012.81
2023-02-09T04:19:14.871Z,103000.38
2023-02-09T04:21:42.993Z,102991.56
2023-02-09T04:24:11.225Z,102994.50
2023-02-09T04:26:40.770Z,102994.28
2023-02-09T04:29:08.734Z,102998.31
2023-02-09T04:31:36.698Z,102996.69
2023-02-09T04:34:04.826Z,102977.81
2023-02-09T04:36:32.909Z,102981.44
2023-02-09T04:39:00.924Z,102975.44
2023-02-09T04:41:28.867Z,102976.03
2023-02-09T04:43:58.341Z,102971.44
2023-02-09T04:46:26.371Z,102976.75
2023-02-09T04:48:54.350Z,102966.94
2023-02-09T04:51:22.376Z,102973.91
2023-02-09T04:53:50.957Z,102971.13
2023-02-09T04:56:19.221Z,102979.25
2023-02-09T04:59:04.527Z,102984.47
2023-02-09T05:01:34.076Z,102974.03
2023-02-09T05:04:02.189Z,102980.00
2023-02-09T05:06:30.395Z,102975.94
2023-02-09T05:08:58.397Z,102980.41
2023-02-09T05:11:26.541Z,102983.16
2023-02-09T05:13:54.596Z,102996.31
2023-02-09T05:16:23.756Z,102994.94
2023-02-09T05:18:53.368Z,102990.47
2023-02-09T05:21:21.265Z,102989.75
2023-02-09T05:23:49.302Z,102991.81
2023-02-09T05:26:17.464Z,102995.75
2023-02-09T05:28:45.637Z,102984.09
2023-02-09T05:31:13.762Z,102987.78
2023-02-09T05:33:41.849Z,102975.69
2023-02-09T05:36:12.966Z,102968.31
2023-02-09T05:38:41.059Z,102956.03
2023-02-09T05:41:10.814Z,102945.00
2023-02-09T05:43:39.449Z,102941.66
2023-02-09T05:46:08.580Z,102944.28
2023-02-09T05:48:37.161Z,102937.84
2023-02-09T05:51:05.667Z,102955.13
2023-02-09T05:53:35.722Z,102953.09
2023-02-09T05:56:04.145Z,102948.78
2023-02-09T05:58:32.039Z,102954.66
2023-02-09T06:01:00.006Z,102948.38
2023-02-09T06:03:28.096Z,102961.13
2023-02-09T06:05:56.050Z,102963.47
2023-02-09T06:08:24.079Z,102974.59
2023-02-09T06:10:53.494Z,102977.19
2023-02-09T06:13:22.183Z,102987.78
2023-02-09T06:15:50.078Z,102990.09
2023-02-09T06:18:18.189Z,103000.22
2023-02-09T06:20:46.475Z,102984.53
2023-02-09T06:23:14.858Z,102980.66
2023-02-09T06:25:44.304Z,102973.25
2023-02-09T06:28:13.859Z,102980.59
2023-02-09T06:30:41.882Z,102984.63
2023-02-09T06:33:09.913Z,102968.88
2023-02-09T06:35:37.993Z,102976.69
2023-02-09T06:38:06.027Z,102988.81
2023-02-09T06:40:34.157Z,103000.38
2023-02-09T06:43:02.147Z,102997.41
2023-02-09T06:45:31.844Z,102996.94
2023-02-09T06:47:59.959Z,103003.22
2023-02-09T06:50:28.056Z,103012.25
2023-02-09T06:52:58.235Z,103020.44
2023-02-09T06:55:26.552Z,103011.22
2023-02-09T06:57:56.328Z,103008.25
2023-02-09T07:00:24.997Z,103013.75
2023-02-09T07:02:55.470Z,103017.75
2023-02-09T07:05:23.483Z,103009.56
2023-02-09T07:07:51.597Z,103015.81
2023-02-09T07:10:20.380Z,103004.44
2023-02-09T07:12:48.356Z,103009.44
2023-02-09T07:15:16.622Z,103005.66
2023-02-09T07:17:44.614Z,103019.81
2023-02-09T07:20:14.600Z,103021.03
2023-02-09T07:22:42.535Z,103024.97
2023-02-09T07:25:10.697Z,103033.91
2023-02-09T07:27:38.706Z,103026.09
2023-02-09T07:30:07.364Z,103021.69
2023-02-09T07:32:35.411Z,103014.53
2023-02-09T07:35:03.272Z,103010.91
2023-02-09T07:37:33.048Z,103004.94
2023-02-09T07:40:01.336Z,103003.25
2023-02-09T07:42:29.308Z,103007.84
2023-02-09T07:45:01.335Z,103009.38
2023-02-09T07:47:29.222Z,103017.88
2023-02-09T07:49:57.138Z,103020.66
2023-02-09T07:52:25.144Z,103008.09
2023-02-09T07:54:54.660Z,103012.31
2023-02-09T07:57:22.545Z,103009.13
2023-02-09T07:59:50.560Z,103027.97
2023-02-09T08:02:27.616Z,103031.22
2023-02-09T08:04:59.432Z,103041.97
2023-02-09T08:07:27.885Z,103028.50
2023-02-09T08:09:57.560Z,103046.63
2023-02-09T08:12:43.111Z,103043.19
2023-02-09T08:15:11.739Z,103051.22
2023-02-09T08:17:40.009Z,103050.16
2023-02-09T08:20:12.879Z,103049.44
2023-02-09T08:22:43.720Z,103062.97
2023-02-09T08:25:15.800Z,103065.72
2023-02-09T08:27:45.385Z,103072.28
2023-02-09T08:30:16.572Z,103071.13
2023-02-09T08:32:44.829Z,103067.19
2023-02-09T08:35:13.153Z,103069.88
2023-02-09T08:37:41.096Z,103085.19
2023-02-09T08:40:09.919Z,103094.38
2023-02-09T08:42:39.487Z,103090.75
2023-02-09T08:45:08.337Z,103083.72
2023-02-09T08:47:36.395Z,103079.06
2023-02-09T08:50:04.402Z,103086.66
2023-02-09T08:52:32.294Z,103081.41
2023-02-09T08:55:00.160Z,103076.75
2023-02-09T08:57:42.787Z,103079.06
2023-02-09T09:00:15.037Z,103070.16
2023-02-09T09:02:43.218Z,103080.78
2023-02-09T09:05:11.233Z,103070.72
2023-02-09T09:07:39.174Z,103087.00
2023-02-09T09:10:09.377Z,103081.78
2023-02-09T09:12:38.361Z,103092.22
2023-02-09T09:15:07.176Z,103093.31
2023-02-09T09:17:36.476Z,103080.63
2023-02-09T09:20:04.976Z,103095.16
2023-02-09T09:22:32.941Z,103097.91
2023-02-09T09:25:00.870Z,103096.94
2023-02-09T09:27:29.035Z,103104.25
2023-02-09T09:29:57.363Z,103094.34
2023-02-09T09:32:25.702Z,103101.31
2023-02-09T09:34:57.607Z,103106.97
2023-02-09T09:37:26.760Z,103107.13
2023-02-09T09:39:54.943Z,103101.00
2023-02-09T09:42:26.474Z,103084.78
2023-02-09T09:44:55.301Z,103083.94
2023-02-09T09:47:30.377Z,103090.31
2023-02-09T09:50:00.164Z,103091.03
2023-02-09T09:52:31.801Z,103079.81
2023-02-09T09:55:01.419Z,103049.13
2023-02-09T09:57:32.295Z,103059.94
2023-02-09T10:00:04.262Z,103057.38
2023-02-09T10:02:34.537Z,103040.31
2023-02-09T10:05:17.765Z,103050.00
2023-02-09T10:07:51.113Z,103068.94
2023-02-09T10:10:24.917Z,103072.69
2023-02-09T10:12:56.510Z,103062.75
2023-02-09T10:15:30.604Z,103053.81
2023-02-09T10:17:59.494Z,103060.88
2023-02-09T10:20:44.352Z,103075.97
2023-02-09T10:23:23.104Z,103085.88
2023-02-09T10:25:56.646Z,103086.88
2023-02-09T10:28:27.389Z,103083.19
2023-02-09T10:30:59.850Z,103085.13
2023-02-09T10:33:29.639Z,103065.50
2023-02-09T10:36:06.096Z,103065.44
2023-02-09T10:38:34.714Z,103060.25
2023-02-09T10:41:03.201Z,103059.38
2023-02-09T10:43:33.528Z,103068.31
2023-02-09T10:46:03.922Z,103062.13
2023-02-09T10:48:41.803Z,103078.22
2023-02-09T10:51:15.234Z,103088.97
2023-02-09T10:53:59.749Z,103073.03
2023-02-09T10:56:30.160Z,103058.00
2023-02-09T10:59:03.681Z,103082.22
2023-02-09T11:01:34.841Z,103064.34
2023-02-09T11:04:05.063Z,103050.91
2023-02-09T11:06:44.367Z,103060.75
2023-02-09T11:09:16.753Z,103065.25
2023-02-09T11:11:46.144Z,103066.13
2023-02-09T11:14:17.327Z,103069.53
2023-02-09T11:16:55.697Z,103101.88
2023-02-09T11:19:40.603Z,103080.47
2023-02-09T11:22:15.033Z,103069.72
2023-02-09T11:24:58.051Z,103080.44
2023-02-09T11:27:39.397Z,103073.28
2023-02-09T11:30:25.131Z,103067.03
2023-02-09T11:32:56.780Z,103065.22
2023-02-09T11:35:27.849Z,103068.81
2023-02-09T11:38:01.698Z,103059.00
2023-02-09T11:40:34.430Z,103059.97
2023-02-09T11:43:16.014Z,103063.50
2023-02-09T11:45:46.751Z,103055.50
2023-02-09T11:48:23.878Z,103053.72
2023-02-09T11:51:02.922Z,103070.69
2023-02-09T11:53:40.621Z,103068.00
2023-02-09T11:56:11.950Z,103055.50
2023-02-09T11:58:45.534Z,103049.28
2023-02-09T12:01:21.869Z,103039.47
2023-02-09T12:04:00.343Z,103037.66
2023-02-09T12:06:31.343Z,103037.66
2023-02-09T12:09:10.048Z,103039.47
2023-02-09T12:11:47.337Z,103035.91
2023-02-09T12:14:24.916Z,103043.03
2023-02-09T12:16:59.258Z,103040.38
2023-02-09T12:19:35.578Z,103043.03
2023-02-09T12:22:41.153Z,103051.94
2023-02-09T12:25:22.849Z,103049.28
2023-02-09T12:28:42.406Z,103058.19
2023-02-09T12:31:14.594Z,103055.50
2023-02-09T12:34:18.294Z,103057.28
2023-02-09T12:37:28.119Z,103059.09
2023-02-09T12:40:15.128Z,103059.97
2023-02-09T12:42:46.169Z,103052.78
2023-02-09T12:45:35.139Z,103062.66
2023-02-09T12:48:14.325Z,103057.22
2023-02-09T12:50:54.611Z,103055.41
2023-02-09T12:53:48.100Z,103044.75
2023-02-09T12:56:31.872Z,103049.22
2023-02-09T12:59:21.948Z,103053.63
2023-02-09T13:02:27.669Z,103042.94
2023-02-09T13:05:02.535Z,103044.66
2023-02-09T13:07:45.985Z,103032.22
2023-02-09T13:10:28.885Z,103032.22
2023-02-09T13:13:00.948Z,103041.16
2023-02-09T13:15:45.318Z,103025.97
2023-02-09T13:18:21.382Z,103027.78
2023-02-09T13:21:16.538Z,103037.53
2023-02-09T13:23:54.768Z,103018.84
2023-02-09T13:26:24.436Z,103017.97
2023-02-09T13:29:19.424Z,103026.00
2023-02-09T13:32:00.202Z,103015.31
2023-02-09T13:34:34.759Z,103018.03
2023-02-09T13:37:16.403Z,103034.06
2023-02-09T13:39:44.959Z,103022.50
2023-02-09T13:42:18.781Z,103024.25
2023-02-09T13:44:48.934Z,103028.72
2023-02-09T13:47:18.469Z,103035.88
2023-02-09T13:49:57.010Z,103048.31
2023-02-09T13:52:26.864Z,103049.25
2023-02-09T13:54:55.263Z,103038.56
2023-02-09T13:57:32.450Z,103041.16
2023-02-09T14:00:09.975Z,103039.38
2023-02-09T14:02:51.243Z,103049.19
2023-02-09T14:05:29.376Z,103044.66
2023-02-09T14:07:58.027Z,103030.44
2023-02-09T14:10:27.677Z,103029.56
2023-02-09T14:13:01.834Z,103034.03
2023-02-09T14:15:55.947Z,103035.75
2023-02-09T14:18:42.526Z,103031.28
2023-02-09T14:21:17.709Z,103040.28
2023-02-09T14:23:47.475Z,103042.00
2023-02-09T14:26:25.260Z,103043.84
2023-02-09T14:28:55.964Z,103045.63
2023-02-09T14:31:26.509Z,103043.81
2023-02-09T14:33:57.280Z,103048.25
2023-02-09T14:36:30.986Z,103051.88
2023-02-09T14:39:11.014Z,103047.38
2023-02-09T14:41:39.665Z,103042.94
2023-02-09T14:44:20.101Z,103037.59
2023-02-09T14:46:50.266Z,103041.19
2023-02-09T14:49:20.702Z,103050.09
2023-02-09T14:51:50.523Z,103050.97
2023-02-09T14:54:24.982Z,103058.13
2023-02-09T14:56:54.280Z,103043.84
2023-02-09T14:59:23.568Z,103042.91
2023-02-09T15:01:53.699Z,103048.28
2023-02-09T15:04:23.466Z,103057.22
2023-02-09T15:07:01.450Z,103050.97
2023-02-09T15:09:34.614Z,103047.44
2023-02-09T15:12:05.853Z,103054.59
2023-02-09T15:14:39.061Z,103056.31
2023-02-09T15:17:15.685Z,103052.75
2023-02-09T15:19:45.329Z,103052.78
2023-02-09T15:22:15.299Z,103061.72
2023-02-09T15:24:44.082Z,103059.97
2023-02-09T15:27:18.190Z,103053.72
2023-02-09T15:29:46.165Z,103064.41
2023-02-09T15:32:16.261Z,103051.03
2023-02-09T15:34:46.070Z,103064.44
2023-02-09T15:37:21.603Z,103058.19
2023-02-09T15:39:50.912Z,103059.06
2023-02-09T15:42:37.728Z,103066.22
2023-02-09T15:45:35.306Z,103071.56
2023-02-09T15:48:03.656Z,103067.13
2023-02-09T15:50:37.636Z,103068.00
2023-02-09T15:53:08.485Z,103073.38
2023-02-09T15:55:37.653Z,103076.94
2023-02-09T15:58:12.380Z,103081.38
2023-02-09T16:00:40.352Z,103081.41
2023-02-09T16:03:14.974Z,103088.53
2023-02-09T16:05:45.274Z,103093.84
2023-02-09T16:08:20.641Z,103104.56
2023-02-09T16:10:49.509Z,103109.94
2023-02-09T16:13:19.662Z,103111.72
2023-02-09T16:15:48.416Z,103112.59
2023-02-09T16:18:16.476Z,103122.44
2023-02-09T16:20:49.145Z,103122.44
2023-02-09T16:23:21.221Z,103130.47
2023-02-09T16:25:51.348Z,103129.53
2023-02-09T16:28:20.188Z,103135.81
2023-02-09T16:30:51.892Z,103134.03
2023-02-09T16:33:20.772Z,103139.34
2023-02-09T16:35:54.391Z,103138.47
2023-02-09T16:38:23.802Z,103142.94
2023-02-09T16:40:51.863Z,103150.06
2023-02-09T16:43:20.505Z,103155.41
2023-02-09T16:46:02.345Z,103146.50
2023-02-09T16:48:34.552Z,103155.41
2023-02-09T16:51:04.223Z,103162.56
2023-02-09T16:53:36.807Z,103155.38
2023-02-09T16:56:10.145Z,103164.31
2023-02-09T16:58:39.122Z,103163.41
2023-02-09T17:01:13.966Z,103162.53
2023-02-09T17:03:44.633Z,103160.69
2023-02-09T17:06:18.079Z,103162.47
2023-02-09T17:08:46.331Z,103161.59
2023-02-09T17:11:18.051Z,103155.38
2023-02-09T17:13:46.220Z,103157.97
2023-02-09T17:16:19.065Z,103164.22
2023-02-09T17:18:48.700Z,103172.28
2023-02-09T17:21:22.214Z,103182.06
2023-02-09T17:23:50.567Z,103185.59
2023-02-09T17:26:19.050Z,103176.59
2023-02-09T17:28:47.491Z,103183.75
2023-02-09T17:31:20.222Z,103185.63
2023-02-09T17:33:52.188Z,103187.28
2023-02-09T17:36:27.684Z,103187.28
2023-02-09T17:38:57.994Z,103197.91
2023-02-09T17:41:32.466Z,103189.88
2023-02-09T17:44:20.749Z,103190.81
2023-02-09T17:46:52.296Z,103196.13
2023-02-09T17:49:20.245Z,103196.16
2023-02-09T17:51:51.532Z,103208.66
2023-02-09T17:54:21.259Z,103209.56
2023-02-09T17:56:49.281Z,103212.22
2023-02-09T17:59:19.894Z,103220.25
2023-02-09T18:01:50.380Z,103219.25
2023-02-09T18:04:21.481Z,103219.34
2023-02-09T18:06:51.117Z,103235.41
2023-02-09T18:09:19.139Z,103226.44
2023-02-09T18:12:00.049Z,103227.34
2023-02-09T18:14:29.368Z,103237.16
2023-02-09T18:16:58.018Z,103238.00
2023-02-09T18:19:27.286Z,103236.22
2023-02-09T18:21:59.240Z,103230.88
2023-02-09T18:24:29.814Z,103238.97
2023-02-09T18:26:59.007Z,103243.44
2023-02-09T18:29:29.547Z,103237.09
2023-02-09T18:31:58.263Z,103235.31
2023-02-09T18:34:27.003Z,103252.31
2023-02-09T18:36:56.909Z,103256.81
2023-02-09T18:39:25.650Z,103252.28
2023-02-09T18:41:55.204Z,103252.31
2023-02-09T18:44:28.773Z,103259.53
2023-02-09T18:46:57.975Z,103263.09
2023-02-09T18:49:26.278Z,103272.88
2023-02-09T18:51:54.355Z,103269.31
2023-02-09T18:54:24.098Z,103271.03
2023-02-09T18:56:53.651Z,103269.34
2023-02-09T18:59:21.726Z,103274.69
2023-02-09T19:01:50.500Z,103269.22
2023-02-09T19:04:18.714Z,103277.28
2023-02-09T19:06:46.652Z,103275.56
2023-02-09T19:09:14.787Z,103277.34
2023-02-09T19:11:44.314Z,103279.06
2023-02-09T19:14:29.635Z,103279.09
2023-02-09T19:16:57.997Z,103286.28
2023-02-09T19:19:26.141Z,103289.84
2023-02-09T19:21:54.505Z,103292.50
2023-02-09T19:24:22.615Z,103287.97
2023-02-09T19:26:52.264Z,103290.72
2023-02-09T19:29:20.455Z,103291.59
2023-02-09T19:31:48.693Z,103294.22
2023-02-09T19:34:16.640Z,103297.78
2023-02-09T19:36:44.981Z,103310.34
2023-02-09T19:39:13.679Z,103311.16
2023-02-09T19:41:44.414Z,103310.34
2023-02-09T19:44:14.382Z,103312.94
2023-02-09T19:46:43.752Z,103312.97
2023-02-09T19:49:12.845Z,103315.72
2023-02-09T19:51:41.093Z,103329.09
2023-02-09T19:54:09.065Z,103326.38
2023-02-09T19:56:37.050Z,103326.47
2023-02-09T19:59:05.327Z,103332.66
2023-02-09T20:01:34.668Z,103330.00
2023-02-09T20:04:02.704Z,103333.56
2023-02-09T20:06:31.120Z,103332.59
2023-02-09T20:09:00.050Z,103343.41
2023-02-09T20:11:29.128Z,103333.47
2023-02-09T20:13:57.109Z,103337.94
2023-02-09T20:16:27.526Z,103338.91
2023-02-09T20:18:57.111Z,103341.56
2023-02-09T20:21:25.445Z,103329.00
2023-02-09T20:23:55.966Z,103328.06
2023-02-09T20:26:29.093Z,103343.25
2023-02-09T20:28:58.406Z,103346.03
2023-02-09T20:31:28.443Z,103350.38
2023-02-09T20:33:58.206Z,103347.69
2023-02-09T20:36:26.284Z,103341.56
2023-02-09T20:38:54.478Z,103351.31
2023-02-09T20:41:34.627Z,103346.91
2023-02-09T20:44:21.078Z,103347.78
2023-02-09T20:46:58.354Z,103348.59
2023-02-09T20:49:31.297Z,103351.28
2023-02-09T20:51:59.754Z,103352.19
2023-02-09T20:54:27.753Z,103353.03
2023-02-09T20:56:55.846Z,103340.59
2023-02-09T20:59:25.439Z,103348.63
2023-02-09T21:01:53.506Z,103349.56
2023-02-09T21:04:21.464Z,103347.81
2023-02-09T21:06:50.934Z,103335.22
2023-02-09T21:09:26.023Z,103338.88
2023-02-09T21:11:54.228Z,103337.91
2023-02-09T21:14:32.642Z,103335.22
2023-02-09T21:17:08.820Z,103350.38
2023-02-09T21:19:36.832Z,103344.97
2023-02-09T21:22:06.680Z,103346.81
2023-02-09T21:24:34.532Z,103347.78
2023-02-09T21:27:02.433Z,103348.56
2023-02-09T21:29:30.746Z,103345.88
2023-02-09T21:32:02.141Z,103343.16
2023-02-09T21:34:30.468Z,103344.16
2023-02-09T21:36:58.812Z,103347.78
2023-02-09T21:39:28.104Z,103344.00
2023-02-09T21:42:13.503Z,103352.94
2023-02-09T21:44:41.354Z,103347.66
2023-02-09T21:47:10.516Z,103351.31
2023-02-09T21:49:38.388Z,103351.28
2023-02-09T21:52:06.820Z,103352.13
2023-02-09T21:54:36.407Z,103348.63
2023-02-09T21:57:04.976Z,103345.97
2023-02-09T21:59:32.943Z,103343.25
2023-02-09T22:02:00.874Z,103337.03
2023-02-09T22:04:28.841Z,103332.53
2023-02-09T22:06:56.746Z,103337.94
2023-02-09T22:09:25.154Z,103335.28
2023-02-09T22:11:54.474Z,103342.38
2023-02-09T22:14:22.512Z,103347.81
2023-02-09T22:16:50.470Z,103345.13
2023-02-09T22:19:18.384Z,103350.53
2023-02-09T22:21:46.320Z,103345.09
2023-02-09T22:24:16.560Z,103349.50
2023-02-09T22:26:45.043Z,103348.63
2023-02-09T22:29:16.200Z,103345.91
2023-02-09T22:31:44.684Z,103352.25
2023-02-09T22:34:12.902Z,103348.81
2023-02-09T22:36:40.848Z,103352.47
2023-02-09T22:39:09.171Z,103348.88
2023-02-09T22:41:37.744Z,103347.97
2023-02-09T22:44:09.414Z,103354.19
2023-02-09T22:46:40.816Z,103353.31
2023-02-09T22:49:10.644Z,103346.19
2023-02-09T22:51:38.604Z,103350.56
2023-02-09T22:54:07.438Z,103358.75
2023-02-09T22:56:35.782Z,103354.16
2023-02-09T22:59:04.037Z,103353.22
2023-02-09T23:01:32.201Z,103349.56
2023-02-09T23:04:01.564Z,103358.50
2023-02-09T23:06:30.439Z,103360.47
2023-02-09T23:09:00.301Z,103357.72
2023-02-09T23:11:29.436Z,103361.25
2023-02-09T23:14:08.951Z,103360.44
2023-02-09T23:16:38.280Z,103364.91
2023-02-09T23:19:10.062Z,103363.06
2023-02-09T23:21:40.471Z,103363.03
2023-02-09T23:24:09.422Z,103360.38
2023-02-09T23:26:37.355Z,103363.94
2023-02-09T23:29:07.804Z,103369.31
2023-02-09T23:31:36.426Z,103372.97
2023-02-09T23:34:05.161Z,103378.31
2023-02-09T23:36:35.633Z,103376.44
2023-02-09T23:39:06.018Z,103371.88
2023-02-09T23:41:34.172Z,103379.13
2023-02-09T23:44:02.174Z,103378.13
2023-02-09T23:46:30.379Z,103387.16
2023-02-09T23:48:58.696Z,103380.00
2023-02-09T23:51:28.640Z,103392.44
2023-02-09T23:54:00.027Z,103390.63
2023-02-09T23:56:29.770Z,103393.38
2023-02-09T23:58:57.630Z,103395.19
